createdAt,value
2022-09-23T00:03:21.638Z,100.00
2022-09-23T00:06:24.935Z,100.00
2022-09-23T00:09:27.275Z,100.00
2022-09-23T00:12:29.859Z,100.00
2022-09-23T00:15:34.093Z,100.00
2022-09-23T00:18:36.783Z,100.00
2022-09-23T00:21:39.079Z,100.00
2022-09-23T00:24:41.588Z,100.00
2022-09-23T00:27:43.838Z,100.00
2022-09-23T00:30:46.447Z,100.00
2022-09-23T00:33:53.160Z,100.00
2022-09-23T00:36:56.965Z,100.00
2022-09-23T00:40:00.822Z,100.00
2022-09-23T00:43:03.731Z,100.00
2022-09-23T00:46:07.252Z,100.00
2022-09-23T00:49:12.783Z,100.00
2022-09-23T00:52:18.132Z,100.00
2022-09-23T00:55:26.872Z,100.00
2022-09-23T00:58:31.835Z,100.00
2022-09-23T01:01:34.472Z,100.00
2022-09-23T01:04:36.794Z,100.00
2022-09-23T01:07:39.642Z,100.00
2022-09-23T01:10:45.639Z,100.00
2022-09-23T01:13:50.893Z,100.00
2022-09-23T01:16:56.180Z,100.00
2022-09-23T01:20:05.748Z,100.00
2022-09-23T01:23:17.551Z,100.00
2022-09-23T01:26:30.388Z,100.00
2022-09-23T01:29:43.954Z,100.00
2022-09-23T01:32:56.876Z,100.00
2022-09-23T01:36:19.047Z,100.00
2022-09-23T01:39:33.836Z,100.00
2022-09-23T01:42:39.617Z,100.00
2022-09-23T01:45:44.870Z,100.00
2022-09-23T01:48:53.947Z,100.00
2022-09-23T01:52:06.077Z,100.00
2022-09-23T01:55:12.779Z,100.00
2022-09-23T01:58:23.189Z,100.00
2022-09-23T02:01:32.340Z,100.00
2022-09-23T02:04:45.781Z,100.00
2022-09-23T02:07:53.003Z,100.00
2022-09-23T02:10:58.752Z,100.00
2022-09-23T02:14:11.343Z,100.00
2022-09-23T02:17:17.243Z,100.00
2022-09-23T02:20:21.991Z,100.00
2022-09-23T02:23:29.878Z,100.00
2022-09-23T02:26:38.133Z,100.00
2022-09-23T02:29:41.355Z,100.00
2022-09-23T02:32:46.689Z,100.00
2022-09-23T02:35:53.891Z,100.00
2022-09-23T02:38:58.127Z,100.00
2022-09-23T02:42:05.345Z,100.00
2022-09-23T02:45:07.821Z,100.00
2022-09-23T02:48:19.431Z,100.00
2022-09-23T02:51:21.680Z,100.00
2022-09-23T02:54:25.757Z,100.00
2022-09-23T02:57:28.348Z,100.00
2022-09-23T03:00:50.192Z,100.00
2022-09-23T03:03:59.757Z,100.00
2022-09-23T03:07:06.337Z,100.00
2022-09-23T03:10:27.535Z,100.00
2022-09-23T03:13:40.365Z,100.00
2022-09-23T03:16:48.012Z,100.00
2022-09-23T03:20:04.946Z,100.00
2022-09-23T03:23:08.899Z,100.00
2022-09-23T03:26:20.796Z,100.00
2022-09-23T03:29:23.487Z,100.00
2022-09-23T03:32:28.029Z,100.00
2022-09-23T03:35:33.047Z,100.00
2022-09-23T03:38:38.034Z,100.00
2022-09-23T03:41:45.135Z,100.00
2022-09-23T03:44:48.878Z,100.00
2022-09-23T03:47:51.100Z,100.00
2022-09-23T03:50:53.826Z,100.00
2022-09-23T03:53:56.229Z,100.00
2022-09-23T03:56:58.931Z,100.00
2022-09-23T04:00:01.439Z,100.00
2022-09-23T04:03:14.237Z,100.00
2022-09-23T04:06:16.884Z,100.00
2022-09-23T04:09:19.286Z,100.00
2022-09-23T04:12:21.918Z,100.00
2022-09-23T04:15:24.555Z,100.00
2022-09-23T04:18:27.119Z,100.00
2022-09-23T04:21:31.134Z,100.00
2022-09-23T04:24:34.038Z,100.00
2022-09-23T04:27:37.891Z,100.00
2022-09-23T04:30:44.341Z,100.00
2022-09-23T04:33:46.660Z,100.00
2022-09-23T04:36:49.612Z,100.00
2022-09-23T04:39:51.932Z,100.00
2022-09-23T04:42:54.807Z,100.00
2022-09-23T04:46:00.968Z,100.00
2022-09-23T04:49:04.281Z,100.00
2022-09-23T04:52:06.956Z,100.00
2022-09-23T04:55:11.303Z,100.00
2022-09-23T04:58:13.765Z,100.00
2022-09-23T05:01:24.269Z,100.00
2022-09-23T05:04:26.737Z,100.00
2022-09-23T05:07:29.285Z,100.00
2022-09-23T05:10:31.509Z,100.00
2022-09-23T05:13:34.113Z,100.00
2022-09-23T05:16:36.399Z,100.00
2022-09-23T05:19:38.919Z,100.00
2022-09-23T05:22:41.172Z,100.00
2022-09-23T05:25:45.361Z,100.00
2022-09-23T05:28:48.059Z,100.00
2022-09-23T05:31:50.622Z,100.00
2022-09-23T05:34:55.111Z,100.00
2022-09-23T05:37:57.792Z,100.00
2022-09-23T05:41:01.328Z,100.00
2022-09-23T05:44:04.359Z,100.00
2022-09-23T05:47:06.729Z,100.00
2022-09-23T05:50:09.497Z,100.00
2022-09-23T05:53:11.740Z,71.91
2022-09-23T05:56:15.159Z,54.06
2022-09-23T05:59:17.458Z,48.50
2022-09-23T06:02:20.106Z,44.53
2022-09-23T06:05:22.862Z,39.98
2022-09-23T06:08:25.369Z,38.93
2022-09-23T06:11:31.684Z,46.08
2022-09-23T06:14:33.940Z,52.20
2022-09-23T06:17:36.529Z,53.43
2022-09-23T06:20:39.022Z,60.61
2022-09-23T06:23:42.270Z,66.16
2022-09-23T06:26:45.023Z,71.48
2022-09-23T06:29:47.611Z,74.08
2022-09-23T06:32:52.067Z,75.27
2022-09-23T06:35:59.949Z,73.38
2022-09-23T06:39:02.405Z,75.71
2022-09-23T06:42:06.384Z,79.82
2022-09-23T06:45:11.831Z,80.41
2022-09-23T06:48:14.419Z,84.36
2022-09-23T06:51:19.453Z,85.35
2022-09-23T06:54:22.146Z,85.55
2022-09-23T06:57:24.457Z,85.96
2022-09-23T07:00:27.044Z,86.58
2022-09-23T07:03:29.645Z,86.76
2022-09-23T07:06:32.257Z,85.84
2022-09-23T07:09:34.509Z,85.19
2022-09-23T07:12:37.187Z,84.66
2022-09-23T07:15:39.443Z,84.06
2022-09-23T07:18:42.711Z,81.35
2022-09-23T07:21:44.952Z,81.36
2022-09-23T07:24:47.649Z,80.63
2022-09-23T07:27:50.150Z,79.52
2022-09-23T07:31:00.121Z,78.99
2022-09-23T07:34:03.000Z,77.20
2022-09-23T07:37:05.600Z,76.89
2022-09-23T07:40:08.427Z,77.54
2022-09-23T07:43:11.051Z,77.15
2022-09-23T07:46:16.450Z,75.87
2022-09-23T07:49:19.324Z,74.96
2022-09-23T07:52:21.651Z,72.33
2022-09-23T07:55:24.203Z,71.78
2022-09-23T07:58:26.528Z,72.98
2022-09-23T08:01:36.881Z,72.66
2022-09-23T08:04:39.495Z,72.68
2022-09-23T08:07:41.757Z,71.44
2022-09-23T08:10:44.446Z,71.03
2022-09-23T08:13:47.650Z,70.30
2022-09-23T08:16:50.799Z,70.87
2022-09-23T08:19:53.134Z,69.32
2022-09-23T08:22:55.649Z,67.81
2022-09-23T08:26:00.890Z,67.96
2022-09-23T08:29:04.000Z,66.66
2022-09-23T08:32:06.400Z,63.23
2022-09-23T08:35:09.423Z,65.36
2022-09-23T08:38:11.760Z,65.91
2022-09-23T08:41:32.841Z,64.69
2022-09-23T08:44:35.100Z,64.85
2022-09-23T08:47:49.622Z,66.61
2022-09-23T08:50:55.618Z,64.35
2022-09-23T08:53:58.855Z,63.03
2022-09-23T08:57:02.632Z,64.31
2022-09-23T09:00:05.840Z,64.17
2022-09-23T09:03:19.503Z,63.36
2022-09-23T09:06:28.112Z,62.39
2022-09-23T09:09:32.576Z,63.11
2022-09-23T09:12:43.602Z,63.02
2022-09-23T09:15:51.421Z,63.13
2022-09-23T09:18:55.231Z,63.55
2022-09-23T09:21:57.884Z,62.71
2022-09-23T09:25:05.127Z,64.83
2022-09-23T09:28:14.507Z,62.62
2022-09-23T09:31:21.383Z,63.75
2022-09-23T09:34:26.913Z,62.14
2022-09-23T09:37:33.635Z,61.21
2022-09-23T09:40:39.530Z,60.88
2022-09-23T09:43:44.371Z,59.71
2022-09-23T09:47:07.622Z,59.65
2022-09-23T09:50:13.976Z,59.06
2022-09-23T09:53:23.891Z,58.71
2022-09-23T09:56:34.608Z,56.14
2022-09-23T09:59:43.080Z,55.67
2022-09-23T10:02:46.798Z,55.21
2022-09-23T10:05:50.453Z,55.32
2022-09-23T10:09:02.108Z,53.95
2022-09-23T10:12:10.805Z,53.66
2022-09-23T10:15:28.459Z,54.19
2022-09-23T10:18:39.102Z,54.20
2022-09-23T10:21:42.302Z,52.81
2022-09-23T10:24:48.333Z,51.56
2022-09-23T10:27:50.737Z,52.78
2022-09-23T10:31:08.768Z,51.62
2022-09-23T10:34:41.483Z,51.67
2022-09-23T10:37:51.741Z,55.29
2022-09-23T10:41:13.310Z,55.58
2022-09-23T10:44:46.977Z,53.66
2022-09-23T10:48:03.181Z,53.43
2022-09-23T10:51:14.495Z,50.35
2022-09-23T10:54:35.757Z,50.46
2022-09-23T10:57:47.293Z,49.99
2022-09-23T11:00:51.323Z,50.37
2022-09-23T11:03:54.319Z,50.33
2022-09-23T11:07:07.390Z,50.45
2022-09-23T11:10:48.402Z,51.48
2022-09-23T11:13:56.692Z,50.74
2022-09-23T11:17:05.843Z,49.78
2022-09-23T11:20:40.992Z,49.04
2022-09-23T11:23:50.220Z,49.23
2022-09-23T11:27:16.808Z,49.83
2022-09-23T11:30:23.015Z,48.09
2022-09-23T11:33:40.659Z,47.13
2022-09-23T11:36:52.327Z,47.44
2022-09-23T11:40:01.192Z,47.36
2022-09-23T11:43:15.770Z,44.35
2022-09-23T11:46:24.195Z,43.94
2022-09-23T11:49:30.999Z,43.44
2022-09-23T11:52:36.371Z,43.15
2022-09-23T11:55:57.852Z,42.54
2022-09-23T11:59:13.033Z,42.59
2022-09-23T12:02:30.471Z,43.33
2022-09-23T12:05:47.379Z,42.82
2022-09-23T12:08:59.445Z,41.63
2022-09-23T12:12:25.061Z,41.49
2022-09-23T12:15:48.162Z,41.40
2022-09-23T12:18:51.076Z,38.28
2022-09-23T12:21:56.605Z,40.00
2022-09-23T12:24:59.295Z,40.70
2022-09-23T12:28:12.509Z,38.92
2022-09-23T12:31:19.679Z,41.12
2022-09-23T12:34:29.028Z,42.83
2022-09-23T12:37:38.802Z,43.41
2022-09-23T12:40:44.038Z,43.86
2022-09-23T12:43:55.346Z,43.11
2022-09-23T12:47:25.196Z,43.93
2022-09-23T12:50:46.246Z,41.96
2022-09-23T12:53:50.690Z,40.01
2022-09-23T12:56:54.563Z,40.25
2022-09-23T13:00:11.521Z,41.69
2022-09-23T13:03:32.824Z,40.31
2022-09-23T13:06:56.618Z,40.20
2022-09-23T13:10:19.793Z,40.29
2022-09-23T13:13:29.465Z,40.24
2022-09-23T13:16:50.638Z,39.65
2022-09-23T13:20:04.905Z,40.51
2022-09-23T13:23:27.043Z,40.47
2022-09-23T13:26:31.805Z,41.95
2022-09-23T13:29:51.866Z,42.58
2022-09-23T13:33:11.135Z,42.25
2022-09-23T13:36:14.865Z,43.73
2022-09-23T13:39:22.924Z,43.21
2022-09-23T13:42:28.901Z,44.67
2022-09-23T13:45:33.163Z,44.80
2022-09-23T13:48:35.980Z,45.95
2022-09-23T13:51:38.279Z,46.89
2022-09-23T13:54:49.177Z,48.19
2022-09-23T13:57:58.646Z,48.40
2022-09-23T14:01:01.858Z,45.66
2022-09-23T14:04:04.565Z,45.92
2022-09-23T14:07:07.920Z,47.67
2022-09-23T14:10:17.295Z,47.82
2022-09-23T14:13:31.465Z,46.66
2022-09-23T14:16:36.265Z,51.06
2022-09-23T14:19:38.692Z,50.25
2022-09-23T14:22:41.510Z,52.92
2022-09-23T14:25:46.652Z,54.38
2022-09-23T14:28:49.477Z,51.92
2022-09-23T14:31:56.962Z,54.99
2022-09-23T14:34:59.827Z,55.47
2022-09-23T14:38:34.566Z,53.64
2022-09-23T14:41:39.086Z,53.22
2022-09-23T14:44:41.582Z,49.66
2022-09-23T14:47:46.513Z,52.12
2022-09-23T14:50:51.369Z,50.71
2022-09-23T14:53:53.943Z,46.90
2022-09-23T14:56:56.259Z,47.90
2022-09-23T15:00:00.180Z,48.83
2022-09-23T15:03:03.482Z,48.27
2022-09-23T15:06:09.232Z,50.36
2022-09-23T15:09:19.994Z,50.96
2022-09-23T15:12:22.563Z,51.80
2022-09-23T15:15:28.158Z,53.64
2022-09-23T15:18:34.135Z,53.83
2022-09-23T15:21:41.057Z,55.20
2022-09-23T15:24:45.041Z,55.75
2022-09-23T15:28:07.581Z,55.73
2022-09-23T15:31:13.496Z,55.80
2022-09-23T15:34:15.709Z,55.94
2022-09-23T15:37:18.368Z,55.76
2022-09-23T15:40:23.715Z,55.94
2022-09-23T15:43:27.519Z,56.42
2022-09-23T15:46:30.274Z,55.03
2022-09-23T15:49:36.137Z,55.14
2022-09-23T15:52:39.957Z,55.65
2022-09-23T15:55:42.650Z,55.65
2022-09-23T15:58:44.954Z,56.55
2022-09-23T16:01:47.811Z,56.36
2022-09-23T16:04:51.013Z,56.75
2022-09-23T16:07:53.428Z,57.49
2022-09-23T16:10:56.126Z,57.75
2022-09-23T16:13:59.435Z,58.53
2022-09-23T16:17:03.475Z,58.14
2022-09-23T16:20:06.048Z,58.68
2022-09-23T16:23:14.167Z,59.06
2022-09-23T16:26:17.896Z,62.70
2022-09-23T16:29:20.485Z,61.45
2022-09-23T16:32:24.162Z,60.60
2022-09-23T16:35:27.882Z,59.94
2022-09-23T16:38:30.268Z,59.55
2022-09-23T16:41:32.828Z,56.50
2022-09-23T16:44:35.481Z,57.58
2022-09-23T16:47:47.360Z,58.05
2022-09-23T16:50:49.651Z,57.50
2022-09-23T16:53:53.063Z,59.07
2022-09-23T16:56:55.344Z,59.31
2022-09-23T17:00:16.422Z,60.80
2022-09-23T17:03:37.364Z,61.18
2022-09-23T17:06:50.321Z,62.31
2022-09-23T17:09:52.636Z,63.80
2022-09-23T17:12:55.239Z,64.97
2022-09-23T17:15:57.712Z,65.87
2022-09-23T17:19:06.244Z,66.21
2022-09-23T17:22:09.849Z,67.43
2022-09-23T17:25:12.394Z,67.98
2022-09-23T17:28:14.766Z,68.82
2022-09-23T17:31:19.483Z,70.99
2022-09-23T17:34:21.968Z,71.55
2022-09-23T17:37:24.549Z,74.95
2022-09-23T17:40:27.467Z,75.99
2022-09-23T17:43:32.663Z,76.83
2022-09-23T17:46:34.961Z,77.81
2022-09-23T17:49:37.629Z,78.28
2022-09-23T17:52:40.145Z,79.49
2022-09-23T17:55:42.799Z,81.31
2022-09-23T17:58:46.056Z,81.57
2022-09-23T18:01:48.697Z,82.46
2022-09-23T18:04:51.387Z,83.63
2022-09-23T18:07:53.704Z,85.86
2022-09-23T18:10:56.384Z,86.43
2022-09-23T18:14:00.087Z,87.58
2022-09-23T18:17:02.726Z,89.28
2022-09-23T18:20:05.367Z,90.55
2022-09-23T18:23:08.010Z,91.59
2022-09-23T18:26:13.912Z,92.61
2022-09-23T18:29:16.993Z,94.49
2022-09-23T18:32:19.306Z,95.15
2022-09-23T18:35:21.834Z,96.61
2022-09-23T18:38:24.120Z,97.67
2022-09-23T18:41:27.180Z,98.50
2022-09-23T18:44:29.416Z,99.72
2022-09-23T18:47:50.911Z,100.00
2022-09-23T18:50:53.810Z,100.00
2022-09-23T18:53:59.942Z,100.00
2022-09-23T18:57:02.382Z,100.00
2022-09-23T19:00:06.009Z,100.00
2022-09-23T19:03:09.205Z,100.00
2022-09-23T19:06:14.336Z,100.00
2022-09-23T19:09:18.284Z,100.00
2022-09-23T19:12:22.542Z,100.00
2022-09-23T19:15:24.873Z,100.00
2022-09-23T19:18:28.974Z,100.00
2022-09-23T19:21:31.541Z,100.00
2022-09-23T19:24:34.075Z,100.00
2022-09-23T19:27:36.535Z,100.00
2022-09-23T19:30:39.350Z,100.00
2022-09-23T19:33:41.909Z,100.00
2022-09-23T19:36:45.738Z,100.00
2022-09-23T19:39:49.528Z,100.00
2022-09-23T19:42:54.083Z,100.00
2022-09-23T19:45:56.350Z,100.00
2022-09-23T19:49:00.199Z,100.00
2022-09-23T19:52:02.682Z,100.00
2022-09-23T19:55:06.578Z,100.00
2022-09-23T19:58:09.080Z,100.00
2022-09-23T20:01:11.762Z,100.00
2022-09-23T20:04:15.791Z,100.00
2022-09-23T20:07:19.277Z,100.00
2022-09-23T20:10:22.755Z,100.00
2022-09-23T20:13:25.060Z,100.00
2022-09-23T20:16:29.232Z,100.00
2022-09-23T20:19:31.480Z,100.00
2022-09-23T20:22:34.107Z,100.00
2022-09-23T20:25:59.584Z,100.00
2022-09-23T20:29:02.393Z,100.00
2022-09-23T20:32:04.733Z,100.00
2022-09-23T20:35:07.925Z,100.00
2022-09-23T20:38:10.566Z,100.00
2022-09-23T20:41:13.577Z,100.00
2022-09-23T20:44:15.915Z,100.00
2022-09-23T20:47:18.964Z,100.00
2022-09-23T20:50:21.316Z,100.00
2022-09-23T20:53:24.207Z,100.00
2022-09-23T20:56:27.637Z,100.00
2022-09-23T20:59:30.235Z,100.00
2022-09-23T21:02:32.531Z,100.00
2022-09-23T21:05:36.050Z,100.00
2022-09-23T21:08:39.344Z,100.00
2022-09-23T21:11:41.956Z,100.00
2022-09-23T21:14:44.169Z,100.00
2022-09-23T21:17:46.669Z,100.00
2022-09-23T21:20:55.516Z,100.00
2022-09-23T21:24:17.189Z,100.00
2022-09-23T21:27:20.777Z,100.00
2022-09-23T21:30:23.896Z,100.00
2022-09-23T21:33:26.502Z,100.00
2022-09-23T21:36:30.098Z,100.00
2022-09-23T21:39:32.392Z,100.00
2022-09-23T21:42:35.420Z,100.00
2022-09-23T21:45:37.776Z,100.00
2022-09-23T21:48:41.496Z,100.00
2022-09-23T21:51:43.842Z,100.00
2022-09-23T21:54:46.533Z,100.00
2022-09-23T21:57:48.804Z,100.00
2022-09-23T22:00:51.416Z,100.00
2022-09-23T22:03:58.470Z,100.00
2022-09-23T22:07:01.323Z,100.00
2022-09-23T22:10:05.899Z,100.00
2022-09-23T22:13:12.799Z,100.00
2022-09-23T22:16:16.760Z,100.00
2022-09-23T22:19:19.080Z,100.00
2022-09-23T22:22:21.711Z,100.00
2022-09-23T22:25:24.419Z,100.00
2022-09-23T22:28:46.059Z,100.00
2022-09-23T22:32:06.943Z,100.00
2022-09-23T22:35:14.128Z,100.00
2022-09-23T22:38:16.390Z,100.00
2022-09-23T22:41:22.479Z,100.00
2022-09-23T22:44:29.405Z,100.00
2022-09-23T22:47:38.761Z,100.00
2022-09-23T22:50:42.185Z,100.00
2022-09-23T22:53:44.669Z,100.00
2022-09-23T22:56:47.193Z,100.00
2022-09-23T22:59:50.016Z,100.00
2022-09-23T23:02:52.296Z,100.00
2022-09-23T23:05:57.606Z,100.00
2022-09-23T23:09:00.115Z,100.00
2022-09-23T23:12:02.738Z,100.00
2022-09-23T23:15:05.176Z,100.00
2022-09-23T23:18:07.761Z,100.00
2022-09-23T23:21:18.037Z,100.00
2022-09-23T23:24:21.834Z,100.00
2022-09-23T23:27:24.180Z,100.00
2022-09-23T23:30:26.732Z,100.00
2022-09-23T23:33:29.064Z,100.00
2022-09-23T23:36:31.734Z,100.00
2022-09-23T23:39:33.992Z,100.00
2022-09-23T23:42:36.487Z,100.00
2022-09-23T23:45:38.764Z,100.00
2022-09-23T23:48:45.378Z,100.00
2022-09-23T23:51:47.993Z,100.00
2022-09-23T23:54:50.849Z,100.00
2022-09-23T23:57:54.091Z,100.00
